Terminal Aerodrome Forecast
Issued by NWS

Home | Current Version | Previous Version | Text Only | Print | Product List | Glossary On
Versions: 1 2 3 4 5 6 7 8 9 10 11 12 13 14 15 16 17 18 19 20 21 22 23 24 25 26 27 28 29
237
FTUS41 KBUF 030250 AAA
TAFIAG
TAF AMD
KIAG 030250Z 0303/0324 07004KT P6SM SCT025 BKN250
     FM030800 VRB03KT P6SM BKN025
     FM031200 VRB03KT P6SM SCT025 BKN100
     FM031800 02006KT P6SM BKN040=

USA.gov is the U.S. government's official web portal to all federal, state and local government web resources and services.